Main page
Satellite images 10-day forecastsClimateMarine weather Cyclones Lightning AirportsFAQ Newsletter About
Weather : Europe Africa North America South America Asia Australia-Oceania Others
Languages Contact

Munich, Germany

Munich Airport

latitude: 48-21N, longitude: 011-47E, elevation: 453 m


METAR: EDDM 210220Z 22003KT CAVOK 02/01 Q1026 NOSIG
TAF: EDDM 202300Z 2100/2206 25003KT CAVOK BECMG 2108/2110 31007KT BECMG 2121/2123 25004KT

Time: 04:54 (02:54 UTC)

Current weather observation

The report was made 34 minutes ago, at 02:20 UTC
Wind 3 kt from the Southwest
Temperature 2°C
Humidity 93%
Pressure 1026 hPa
Visibility 10 km or more
no clouds below 1500 m and no cumulonimbus

Change units

Forecast

The report was made 3 hours and 54 minutes ago, at 23:00 UTC
Forecast valid from 21 at 00 UTC to 22 at 06 UTC
Wind 3 kt from the West/Southwest
Visibility 10 km or more
no clouds below 1500 m and no cumulonimbus
Becoming
from 21 at 08 UTC to 21 at 10 UTC
Wind 7 kt from the Northwest
Becoming
from 21 at 21 UTC to 21 at 23 UTC
Wind 4 kt from the West/Southwest
The information on this site is subject to a disclaimer
Weather : Europe Africa North America South America Asia Australia-Oceania Others
Satellite images 10-day forecastsClimateMarine weather Cyclones Lightning AirportsFAQ Languages Contact Newsletter About